Alianca Shanghai — A8CQ5 — position and weather

sailwx.info

Track history (hours):
 
Tides and Currents Weather Stations Pressure Air Temp Water Temp Dewpoint Dewpoint Depression Visibility Wind Speed Wind Dir Waves Ship Positions

Alianca Shanghai

Last reported at 2016-May-24 09:33 UTC. Time now 2016-May-24 10:00 UTC.
Position N 51°20' E 004°20'.

Length 199.9 m; beam 29.8 m; draft 11.6 m.

Type: Ship. MMSI: 636016014.

Date/timePositionNaut miles runAvg speedWind from/ knotsBaromVisibWave heightAir tempDewpointWater temp
2016-May-24 09:33N 51°20' E 004°20'0 0.1
2016-May-24 08:31N 51°20' E 004°20'1 0.7
2016-May-24 07:29N 51°19' E 004°19'0 0.0
2016-May-24 06:32N 51°19' E 004°19'0 0.0
2016-May-24 05:29N 51°19' E 004°19'0 0.0
2016-May-24 04:32N 51°19' E 004°19'0 0.0
2016-May-24 03:17N 51°19' E 004°19'0 0.0
2016-May-24 02:29N 51°19' E 004°19'0 0.0
2016-May-24 01:32N 51°19' E 004°19'0 0.0
2016-May-24 00:32N 51°19' E 004°19'0 0.0
2016-May-23 23:32N 51°19' E 004°19'0 0.0
2016-May-23 22:32N 51°19' E 004°19'0 0.0
2016-May-23 21:32N 51°19' E 004°19'0 0.0
2016-May-23 20:32N 51°19' E 004°19'0 0.0
2016-May-23 19:32N 51°19' E 004°19'0 0.0
2016-May-23 18:32N 51°19' E 004°19'0 0.0
2016-May-23 17:32N 51°19' E 004°19'0 0.0
2016-May-23 16:32N 51°19' E 004°19'0 0.0
2016-May-23 15:32N 51°19' E 004°19'0 0.0
2016-May-23 14:32N 51°19' E 004°19'0 0.0
2016-May-23 13:32N 51°19' E 004°19'2 2.0
2016-May-23 12:33N 51°21' E 004°17'0 0.0
2016-May-23 11:33N 51°21' E 004°17'5 4.8
2016-May-23 10:33N 51°24' E 004°11'9 8.5
2016-May-23 09:33N 51°23' E 003°57'9 9.3
2016-May-23 08:33N 51°25' E 003°42'10 9.8
2016-May-23 07:34N 51°25' E 003°27'1212.1
2016-May-23 06:33N 51°24' E 003°07'1313.1
2016-May-23 05:33N 51°22' E 002°47'1110.5
2016-May-23 04:33N 51°22' E 002°30'1110.9
2016-May-23 03:33N 51°17' E 002°14'1616.0
2016-May-23 02:34N 51°10' E 001°52'1717.1
2016-May-23 01:33N 50°58' E 001°32'6015.1
2016-May-22 21:33N 50°21' E 000°16'1716.9
2016-May-22 20:33N 50°17' W 000°10'1414.4
2016-May-22 19:33N 50°13' W 000°32'1716.8
2016-May-22 18:33N 50°09' W 000°57'1615.7
2016-May-22 17:33N 50°06' W 001°21'6512.8
2016-May-22 12:26N 49°47' W 002°58'1213.7
2016-May-22 11:34N 49°42' W 003°15'8213.4
2016-May-22 05:25N 48°59' W 005°03'1416.4
2016-May-22 04:33N 48°52' W 005°22'2015.8
2016-May-22 03:18N 48°38' W 005°43'59314.5
2016-May-20 10:28N 39°13' W 009°58'1314.4
2016-May-20 09:33N 39°00' W 009°57'1414.2
2016-May-20 08:33N 38°46' W 009°57'1413.7
2016-May-20 07:34N 38°33' W 009°54'1413.8
2016-May-20 06:33N 38°19' W 009°50'1414.1
2016-May-20 05:32N 38°05' W 009°46'1413.9
2016-May-20 04:29N 37°51' W 009°42'1313.9
2016-May-20 03:33N 37°38' W 009°38'  
2016-May-16 01:32N 35°60' W 005°26'1212.2
2016-May-16 00:33N 36°03' W 005°12'21113.7
2016-May-15 09:11N 37°12' W 001°03'914.8
2016-May-15 08:33N 37°19' W 000°55'1414.5
2016-May-15 07:34N 37°28' W 000°42'1414.2
2016-May-15 06:33N 37°39' W 000°30'1514.5
2016-May-15 05:33N 37°51' W 000°20'1715.1
2016-May-15 04:27N 38°05' W 000°08'8111.8
2016-May-14 21:34N 39°26' W 000°19'0 0.4
2016-May-14 20:31N 39°26' W 000°19'0 0.0
2016-May-14 19:31N 39°26' W 000°19'0 0.0
2016-May-14 18:31N 39°26' W 000°19'0 0.0
2016-May-14 17:31N 39°26' W 000°19'0 0.0
2016-May-14 16:31N 39°26' W 000°19'0 0.0
2016-May-14 15:31N 39°26' W 000°19'0 0.0
2016-May-14 14:31N 39°26' W 000°19'0 0.0
2016-May-14 13:31N 39°26' W 000°19'0 0.0
2016-May-14 12:31N 39°26' W 000°19'0 0.0
2016-May-14 11:31N 39°26' W 000°19'0 0.0
2016-May-14 10:31N 39°26' W 000°19'  
Track history (hours):
 
Tides and Currents Weather Stations Pressure Air Temp Water Temp Dewpoint Dewpoint Depression Visibility Wind Speed Wind Dir Waves Ship Positions

Alianca Shanghai

Last reported at 2016-May-24 09:33 UTC. Time now 2016-May-24 10:00 UTC.
Position N 51°20' E 004°20'.

Length 199.9 m; beam 29.8 m; draft 11.6 m.

Type: Ship. MMSI: 636016014.

Date/timePositionNaut miles runAvg speedWind from/ knotsBaromVisibWave heightAir tempDewpointWater temp
2016-May-24 09:33N 51°20' E 004°20'0 0.1
2016-May-24 08:31N 51°20' E 004°20'1 0.7
2016-May-24 07:29N 51°19' E 004°19'0 0.0
2016-May-24 06:32N 51°19' E 004°19'0 0.0
2016-May-24 05:29N 51°19' E 004°19'0 0.0
2016-May-24 04:32N 51°19' E 004°19'0 0.0
2016-May-24 03:17N 51°19' E 004°19'0 0.0
2016-May-24 02:29N 51°19' E 004°19'0 0.0
2016-May-24 01:32N 51°19' E 004°19'0 0.0
2016-May-24 00:32N 51°19' E 004°19'0 0.0
2016-May-23 23:32N 51°19' E 004°19'0 0.0
2016-May-23 22:32N 51°19' E 004°19'0 0.0
2016-May-23 21:32N 51°19' E 004°19'0 0.0
2016-May-23 20:32N 51°19' E 004°19'0 0.0
2016-May-23 19:32N 51°19' E 004°19'0 0.0
2016-May-23 18:32N 51°19' E 004°19'0 0.0
2016-May-23 17:32N 51°19' E 004°19'0 0.0
2016-May-23 16:32N 51°19' E 004°19'0 0.0
2016-May-23 15:32N 51°19' E 004°19'0 0.0
2016-May-23 14:32N 51°19' E 004°19'0 0.0
2016-May-23 13:32N 51°19' E 004°19'2 2.0
2016-May-23 12:33N 51°21' E 004°17'0 0.0
2016-May-23 11:33N 51°21' E 004°17'5 4.8
2016-May-23 10:33N 51°24' E 004°11'9 8.5
2016-May-23 09:33N 51°23' E 003°57'9 9.3
2016-May-23 08:33N 51°25' E 003°42'10 9.8
2016-May-23 07:34N 51°25' E 003°27'1212.1
2016-May-23 06:33N 51°24' E 003°07'1313.1
2016-May-23 05:33N 51°22' E 002°47'1110.5
2016-May-23 04:33N 51°22' E 002°30'1110.9
2016-May-23 03:33N 51°17' E 002°14'1616.0
2016-May-23 02:34N 51°10' E 001°52'1717.1
2016-May-23 01:33N 50°58' E 001°32'6015.1
2016-May-22 21:33N 50°21' E 000°16'1716.9
2016-May-22 20:33N 50°17' W 000°10'1414.4
2016-May-22 19:33N 50°13' W 000°32'1716.8
2016-May-22 18:33N 50°09' W 000°57'1615.7
2016-May-22 17:33N 50°06' W 001°21'6512.8
2016-May-22 12:26N 49°47' W 002°58'1213.7
2016-May-22 11:34N 49°42' W 003°15'8213.4
2016-May-22 05:25N 48°59' W 005°03'1416.4
2016-May-22 04:33N 48°52' W 005°22'2015.8
2016-May-22 03:18N 48°38' W 005°43'59314.5
2016-May-20 10:28N 39°13' W 009°58'1314.4
2016-May-20 09:33N 39°00' W 009°57'1414.2
2016-May-20 08:33N 38°46' W 009°57'1413.7
2016-May-20 07:34N 38°33' W 009°54'1413.8
2016-May-20 06:33N 38°19' W 009°50'1414.1
2016-May-20 05:32N 38°05' W 009°46'1413.9
2016-May-20 04:29N 37°51' W 009°42'1313.9
2016-May-20 03:33N 37°38' W 009°38'  
2016-May-16 01:32N 35°60' W 005°26'1212.2
2016-May-16 00:33N 36°03' W 005°12'21113.7
2016-May-15 09:11N 37°12' W 001°03'914.8
2016-May-15 08:33N 37°19' W 000°55'1414.5
2016-May-15 07:34N 37°28' W 000°42'1414.2
2016-May-15 06:33N 37°39' W 000°30'1514.5
2016-May-15 05:33N 37°51' W 000°20'1715.1
2016-May-15 04:27N 38°05' W 000°08'8111.8
2016-May-14 21:34N 39°26' W 000°19'0 0.4
2016-May-14 20:31N 39°26' W 000°19'0 0.0
2016-May-14 19:31N 39°26' W 000°19'0 0.0
2016-May-14 18:31N 39°26' W 000°19'0 0.0
2016-May-14 17:31N 39°26' W 000°19'0 0.0
2016-May-14 16:31N 39°26' W 000°19'0 0.0
2016-May-14 15:31N 39°26' W 000°19'0 0.0
2016-May-14 14:31N 39°26' W 000°19'0 0.0
2016-May-14 13:31N 39°26' W 000°19'0 0.0
2016-May-14 12:31N 39°26' W 000°19'0 0.0
2016-May-14 11:31N 39°26' W 000°19'0 0.0
2016-May-14 10:31N 39°26' W 000°19'  

Dump ship's entire track history